Time,TemperatureF,DewpointF,PressureIn,WindDirection,WindDirectionDegrees,WindSpeedMPH,WindSpeedGustMPH,Humidity,HourlyPrecipIn,Conditions,Clouds,dailyrainin,SoftwareType,DateUTC
2013-08-02 00:02:00,82.0,75.6,29.93,ESE,112,5.1,-999.0,81,-99.99,,,0.00,Acu-Link.com,2013-08-02 05:02:00,
2013-08-02 00:17:00,81.9,75.8,29.93,SSE,157,7.8,-999.0,82,-99.99,,,0.00,Acu-Link.com,2013-08-02 05:17:00,
2013-08-02 00:32:00,82.2,76.2,29.93,ESE,112,6.7,-999.0,82,-99.99,,,0.00,Acu-Link.com,2013-08-02 05:32:00,
2013-08-02 00:47:00,82.4,76.7,29.94,ESE,112,5.1,-999.0,83,-99.99,,,0.00,Acu-Link.com,2013-08-02 05:47:00,
2013-08-02 01:02:00,82.4,77.1,29.93,SE,135,6.7,-999.0,84,-99.99,,,0.00,Acu-Link.com,2013-08-02 06:02:00,
2013-08-02 01:17:00,82.0,77.8,29.91,SE,135,7.8,-999.0,87,-99.99,,,0.00,Acu-Link.com,2013-08-02 06:17:00,
2013-08-02 01:33:00,81.9,78.3,29.91,SSE,157,7.8,-999.0,89,-99.99,,,0.00,Acu-Link.com,2013-08-02 06:33:00,
2013-08-02 01:48:00,81.9,78.6,29.91,SSE,157,6.3,-999.0,90,-99.99,,,0.00,Acu-Link.com,2013-08-02 06:48:00,
2013-08-02 02:03:00,81.9,78.6,29.89,SE,135,8.3,-999.0,90,-99.99,,,0.00,Acu-Link.com,2013-08-02 07:03:00,
2013-08-02 02:18:00,81.7,79.5,29.89,SE,135,9.8,-999.0,93,-99.99,,,0.00,Acu-Link.com,2013-08-02 07:18:00,
2013-08-02 02:34:00,81.3,79.4,29.88,SE,135,8.9,-999.0,94,-99.99,,,0.00,Acu-Link.com,2013-08-02 07:34:00,
2013-08-02 02:49:00,81.0,80.3,29.88,SSE,157,6.7,-999.0,98,-99.99,,,0.00,Acu-Link.com,2013-08-02 07:49:00,
2013-08-02 03:04:00,80.6,80.0,29.87,SE,135,10.3,-999.0,98,-99.99,,,0.00,Acu-Link.com,2013-08-02 08:04:00,
2013-08-02 03:19:00,80.4,79.8,29.87,SE,135,7.4,-999.0,98,-99.99,,,0.00,Acu-Link.com,2013-08-02 08:19:00,
2013-08-02 03:34:00,80.6,80.0,29.87,SSE,157,10.3,-999.0,98,-99.99,,,0.00,Acu-Link.com,2013-08-02 08:34:00,
2013-08-02 03:49:00,80.4,79.8,29.86,SE,135,9.8,-999.0,98,-99.99,,,0.00,Acu-Link.com,2013-08-02 08:49:00,
2013-08-02 04:04:00,80.1,79.4,29.86,SE,135,8.9,-999.0,98,-99.99,,,0.00,Acu-Link.com,2013-08-02 09:04:00,
2013-08-02 04:20:00,79.9,79.3,29.86,SE,135,6.3,-999.0,98,-99.99,,,0.00,Acu-Link.com,2013-08-02 09:20:00,
2013-08-02 04:35:00,79.3,78.7,29.86,SSE,157,8.3,-999.0,98,-99.99,,,0.00,Acu-Link.com,2013-08-02 09:35:00,
2013-08-02 04:50:00,79.3,78.7,29.86,SSE,157,5.1,-999.0,98,-99.99,,,0.00,Acu-Link.com,2013-08-02 09:50:00,
2013-08-02 05:05:00,79.0,78.4,29.86,ESE,112,5.8,-999.0,98,-99.99,,,0.00,Acu-Link.com,2013-08-02 10:05:00,
2013-08-02 05:21:00,78.4,77.8,29.86,ESE,112,4.7,-999.0,98,-99.99,,,0.00,Acu-Link.com,2013-08-02 10:21:00,
2013-08-02 05:36:00,78.3,77.6,29.85,SSE,157,6.7,-999.0,98,-99.99,,,0.00,Acu-Link.com,2013-08-02 10:36:00,
2013-08-02 05:51:00,78.1,77.5,29.85,SSE,157,4.7,-999.0,98,-99.99,,,0.00,Acu-Link.com,2013-08-02 10:51:00,
2013-08-02 06:06:00,78.3,77.6,29.85,South,180,4.7,-999.0,98,-99.99,,,0.00,Acu-Link.com,2013-08-02 11:06:00,
2013-08-02 06:21:00,78.1,77.5,29.85,SSE,157,4.7,-999.0,98,-99.99,,,0.00,Acu-Link.com,2013-08-02 11:21:00,
2013-08-02 06:37:00,78.1,77.5,29.85,SE,135,5.1,-999.0,98,-99.99,,,0.00,Acu-Link.com,2013-08-02 11:37:00,
2013-08-02 06:52:00,78.1,77.5,29.85,ESE,112,0.0,-999.0,98,-99.99,,,0.00,Acu-Link.com,2013-08-02 11:52:00,
2013-08-02 07:07:00,78.1,77.5,29.85,ESE,112,1.1,-999.0,98,-99.99,,,0.00,Acu-Link.com,2013-08-02 12:07:00,
2013-08-02 07:22:00,77.9,77.3,29.85,ESE,112,1.1,-999.0,98,-99.99,,,0.00,Acu-Link.com,2013-08-02 12:22:00,
2013-08-02 07:37:00,79.0,78.4,29.85,SE,135,0.0,-999.0,98,-99.99,,,0.00,Acu-Link.com,2013-08-02 12:37:00,
2013-08-02 07:53:00,81.0,80.3,29.86,SSE,157,0.0,-999.0,98,-99.99,,,0.00,Acu-Link.com,2013-08-02 12:53:00,
2013-08-02 08:08:00,82.2,80.3,29.86,SSW,202,0.0,-999.0,94,-99.99,,,0.00,Acu-Link.com,2013-08-02 13:08:00,
2013-08-02 08:23:00,83.3,78.7,29.86,SE,135,9.4,-999.0,86,-99.99,,,0.00,Acu-Link.com,2013-08-02 13:23:00,
2013-08-02 08:38:00,84.7,77.1,29.86,SSW,202,4.7,-999.0,78,-99.99,,,0.00,Acu-Link.com,2013-08-02 13:38:00,
2013-08-02 08:53:00,86.4,75.4,29.86,ESE,112,0.0,-999.0,70,-99.99,,,0.00,Acu-Link.com,2013-08-02 13:53:00,
2013-08-02 09:09:00,86.9,75.0,29.86,SSW,202,8.3,-999.0,68,-99.99,,,0.00,Acu-Link.com,2013-08-02 14:09:00,
2013-08-02 09:24:00,88.3,74.1,29.86,SSW,202,6.3,-999.0,63,-99.99,,,0.00,Acu-Link.com,2013-08-02 14:24:00,
2013-08-02 09:39:00,89.8,73.0,29.86,SSW,202,5.8,-999.0,58,-99.99,,,0.00,Acu-Link.com,2013-08-02 14:39:00,
2013-08-02 09:54:00,91.0,72.0,29.86,West,270,6.3,-999.0,54,-99.99,,,0.00,Acu-Link.com,2013-08-02 14:54:00,
2013-08-02 10:09:00,92.7,71.8,29.86,NNW,337,5.8,-999.0,51,-99.99,,,0.00,Acu-Link.com,2013-08-02 15:09:00,
2013-08-02 10:25:00,94.3,69.6,29.86,West,270,11.9,-999.0,45,-99.99,,,0.00,Acu-Link.com,2013-08-02 15:25:00,
2013-08-02 10:40:00,96.3,69.4,29.86,West,270,9.4,-999.0,42,-99.99,,,0.00,Acu-Link.com,2013-08-02 15:40:00,
2013-08-02 10:55:00,96.3,68.7,29.86,SW,225,9.4,-999.0,41,-99.99,,,0.00,Acu-Link.com,2013-08-02 15:55:00,
2013-08-02 11:10:00,98.2,69.0,29.87,SW,225,14.5,-999.0,39,-99.99,,,0.00,Acu-Link.com,2013-08-02 16:10:00,
2013-08-02 11:25:00,98.4,67.6,29.87,West,270,9.8,-999.0,37,-99.99,,,0.00,Acu-Link.com,2013-08-02 16:25:00,
2013-08-02 11:41:00,98.8,67.1,29.86,West,270,14.5,-999.0,36,-99.99,,,0.00,Acu-Link.com,2013-08-02 16:41:00,
2013-08-02 11:56:00,100.0,67.4,29.86,West,270,11.4,-999.0,35,-99.99,,,0.00,Acu-Link.com,2013-08-02 16:56:00,
2013-08-02 12:26:00,102.9,64.5,29.85,West,270,15.0,-999.0,29,-99.99,,,0.00,Acu-Link.com,2013-08-02 17:26:00,
2013-08-02 12:42:00,102.9,62.4,29.84,West,270,8.9,-999.0,27,-99.99,,,0.00,Acu-Link.com,2013-08-02 17:42:00,
2013-08-02 12:57:00,103.3,62.7,29.84,WSW,247,7.4,-999.0,27,-99.99,,,0.00,Acu-Link.com,2013-08-02 17:57:00,
2013-08-02 13:12:00,104.9,61.9,29.83,WSW,247,8.9,-999.0,25,-99.99,,,0.00,Acu-Link.com,2013-08-02 18:12:00,
2013-08-02 13:27:00,103.8,63.2,29.83,South,180,11.4,-999.0,27,-99.99,,,0.00,Acu-Link.com,2013-08-02 18:27:00,
2013-08-02 13:42:00,104.7,61.7,29.82,West,270,4.3,-999.0,25,-99.99,,,0.00,Acu-Link.com,2013-08-02 18:42:00,
2013-08-02 13:58:00,104.4,61.4,29.82,SW,225,9.4,-999.0,25,-99.99,,,0.00,Acu-Link.com,2013-08-02 18:58:00,
2013-08-02 14:13:00,106.2,61.8,29.82,West,270,4.3,-999.0,24,-99.99,,,0.00,Acu-Link.com,2013-08-02 19:13:00,
2013-08-02 14:28:00,106.3,61.9,29.81,WSW,247,7.8,-999.0,24,-99.99,,,0.00,Acu-Link.com,2013-08-02 19:28:00,
2013-08-02 14:43:00,105.3,61.0,29.81,WSW,247,9.4,-999.0,24,-99.99,,,0.00,Acu-Link.com,2013-08-02 19:43:00,
2013-08-02 14:58:00,107.1,61.3,29.81,SW,225,6.7,-999.0,23,-99.99,,,0.00,Acu-Link.com,2013-08-02 19:58:00,
2013-08-02 14:59:00,107.1,61.3,29.81,SW,225,6.7,-999.0,23,-99.99,,,0.00,Acu-Link.com,2013-08-02 19:59:00,
2013-08-02 15:14:00,107.1,61.3,29.81,West,270,10.3,-999.0,23,-99.99,,,0.00,Acu-Link.com,2013-08-02 20:14:00,
2013-08-02 15:29:00,106.9,61.2,29.80,SSW,202,10.3,-999.0,23,-99.99,,,0.00,Acu-Link.com,2013-08-02 20:29:00,
2013-08-02 15:44:00,106.7,61.0,29.80,SSW,202,11.9,-999.0,23,-99.99,,,0.00,Acu-Link.com,2013-08-02 20:44:00,
2013-08-02 15:59:00,106.0,61.6,29.79,SSW,202,7.8,-999.0,24,-99.99,,,0.00,Acu-Link.com,2013-08-02 20:59:00,
2013-08-02 16:15:00,106.3,60.7,29.79,SSW,202,7.4,-999.0,23,-99.99,,,0.00,Acu-Link.com,2013-08-02 21:15:00,
2013-08-02 16:30:00,105.8,61.5,29.78,South,180,11.9,-999.0,24,-99.99,,,0.00,Acu-Link.com,2013-08-02 21:30:00,
2013-08-02 16:45:00,106.0,61.6,29.78,South,180,13.0,-999.0,24,-99.99,,,0.00,Acu-Link.com,2013-08-02 21:45:00,
2013-08-02 17:00:00,104.9,60.7,29.78,South,180,7.4,-999.0,24,-99.99,,,0.00,Acu-Link.com,2013-08-02 22:00:00,
2013-08-02 17:15:00,106.0,61.6,29.78,South,180,13.4,-999.0,24,-99.99,,,0.00,Acu-Link.com,2013-08-02 22:15:00,
2013-08-02 17:31:00,105.6,61.3,29.78,South,180,11.9,-999.0,24,-99.99,,,0.00,Acu-Link.com,2013-08-02 22:31:00,
2013-08-02 17:46:00,105.8,60.3,29.78,SSW,202,13.4,-999.0,23,-99.99,,,0.00,Acu-Link.com,2013-08-02 22:46:00,
2013-08-02 18:01:00,104.9,61.9,29.77,SSE,157,11.9,-999.0,25,-99.99,,,0.00,Acu-Link.com,2013-08-02 23:01:00,
2013-08-02 18:16:00,104.7,61.7,29.77,South,180,14.1,-999.0,25,-99.99,,,0.00,Acu-Link.com,2013-08-02 23:16:00,
2013-08-02 18:31:00,104.9,61.9,29.76,South,180,11.0,-999.0,25,-99.99,,,0.00,Acu-Link.com,2013-08-02 23:31:00,
2013-08-02 18:47:00,104.4,61.4,29.76,SSW,202,13.0,-999.0,25,-99.99,,,0.00,Acu-Link.com,2013-08-02 23:47:00,
2013-08-02 19:02:00,104.0,61.1,29.77,SSW,202,13.0,-999.0,25,-99.99,,,0.00,Acu-Link.com,2013-08-03 00:02:00,
2013-08-02 19:17:00,103.8,62.1,29.77,South,180,12.5,-999.0,26,-99.99,,,0.00,Acu-Link.com,2013-08-03 00:17:00,
2013-08-02 19:32:00,103.5,61.8,29.77,South,180,14.5,-999.0,26,-99.99,,,0.00,Acu-Link.com,2013-08-03 00:32:00,
2013-08-02 19:47:00,102.6,61.0,29.77,SSW,202,9.4,-999.0,26,-99.99,,,0.00,Acu-Link.com,2013-08-03 00:47:00,
2013-08-02 20:03:00,101.5,64.2,29.77,SSW,202,10.3,-999.0,30,-99.99,,,0.00,Acu-Link.com,2013-08-03 01:03:00,
2013-08-02 20:18:00,100.0,65.7,29.78,South,180,11.4,-999.0,33,-99.99,,,0.00,Acu-Link.com,2013-08-03 01:18:00,
2013-08-02 20:33:00,99.1,66.6,29.78,South,180,14.1,-999.0,35,-99.99,,,0.00,Acu-Link.com,2013-08-03 01:33:00,
2013-08-02 20:48:00,98.1,66.5,29.79,South,180,11.0,-999.0,36,-99.99,,,0.00,Acu-Link.com,2013-08-03 01:48:00,
2013-08-02 21:04:00,97.2,66.5,29.79,South,180,8.9,-999.0,37,-99.99,,,0.00,Acu-Link.com,2013-08-03 02:04:00,
2013-08-02 21:19:00,96.8,66.9,29.79,SSE,157,10.3,-999.0,38,-99.99,,,0.00,Acu-Link.com,2013-08-03 02:19:00,
2013-08-02 21:34:00,95.9,67.6,29.79,SSE,157,12.5,-999.0,40,-99.99,,,0.00,Acu-Link.com,2013-08-03 02:34:00,
2013-08-02 21:49:00,95.5,67.3,29.80,SSE,157,7.8,-999.0,40,-99.99,,,0.00,Acu-Link.com,2013-08-03 02:49:00,
2013-08-02 22:04:00,95.0,67.6,29.81,South,180,9.4,-999.0,41,-99.99,,,0.00,Acu-Link.com,2013-08-03 03:04:00,
2013-08-02 22:19:00,94.5,67.8,29.81,South,180,14.1,-999.0,42,-99.99,,,0.00,Acu-Link.com,2013-08-03 03:19:00,
2013-08-02 22:35:00,93.7,67.1,29.81,South,180,11.4,-999.0,42,-99.99,,,0.00,Acu-Link.com,2013-08-03 03:35:00,
2013-08-02 22:50:00,93.2,67.3,29.81,South,180,9.8,-999.0,43,-99.99,,,0.00,Acu-Link.com,2013-08-03 03:50:00,
2013-08-02 23:05:00,92.8,67.0,29.82,SSW,202,9.4,-999.0,43,-99.99,,,0.00,Acu-Link.com,2013-08-03 04:05:00,
2013-08-02 23:20:00,92.5,66.7,29.82,South,180,11.4,-999.0,43,-99.99,,,0.00,Acu-Link.com,2013-08-03 04:20:00,
2013-08-02 23:36:00,92.5,66.7,29.82,South,180,7.8,-999.0,43,-99.99,,,0.00,Acu-Link.com,2013-08-03 04:36:00,
2013-08-02 23:51:00,92.1,66.4,29.83,SSE,157,11.4,-999.0,43,-99.99,,,0.00,Acu-Link.com,2013-08-03 04:51:00,